Time;durP1;ratioP1;P1;durP2;ratioP2;P2;SDS_P1;SDS_P2;PMS_P1;PMS_P2;Temp;Humidity;BMP_temperature;BMP_pressure;BME280_temperature;BME280_humidity;BME280_pressure;Samples;Min_cycle;Max_cycle;Signal;HPM_P1;HPM_P2
2022/03/13 00:02:04;;;;;;;19.83;12.43;;;7.60;36.20;;;;;;5083246;28;20551;-84
2022/03/13 00:04:31;;;;;;;19.90;12.23;;;7.70;36.00;;;;;;5072600;28;20452;-85
2022/03/13 00:06:58;;;;;;;18.60;11.87;;;7.60;35.80;;;;;;5063517;28;20452;-83
2022/03/13 00:09:26;;;;;;;24.43;13.40;;;7.60;36.00;;;;;;5085474;28;20874;-84
2022/03/13 00:11:55;;;;;;;21.50;12.70;;;7.50;36.00;;;;;;5076373;28;21131;-84
2022/03/13 00:14:24;;;;;;;21.73;13.70;;;7.60;36.20;;;;;;5084909;28;20439;-84
2022/03/13 00:16:51;;;;;;;19.83;12.57;;;7.50;36.10;;;;;;5071223;28;20748;-84
2022/03/13 00:19:20;;;;;;;17.60;11.93;;;7.40;36.20;;;;;;5059652;28;20527;-83
2022/03/13 00:21:51;;;;;;;26.87;11.43;;;7.40;36.60;;;;;;5086873;28;20809;-84
2022/03/13 00:24:20;;;;;;;15.00;8.90;;;7.40;36.60;;;;;;5085250;28;20455;-84
2022/03/13 00:26:48;;;;;;;16.00;9.90;;;7.30;36.30;;;;;;5084912;28;20582;-83
2022/03/13 00:29:16;;;;;;;23.90;13.37;;;7.30;36.00;;;;;;5086483;28;20494;-84
2022/03/13 00:31:43;;;;;;;22.10;13.77;;;7.30;36.10;;;;;;5077154;28;20463;-84
2022/03/13 00:34:10;;;;;;;20.47;11.97;;;7.30;36.30;;;;;;5074618;28;20435;-84
2022/03/13 00:36:37;;;;;;;25.97;13.80;;;7.10;36.30;;;;;;5085847;28;20442;-84
2022/03/13 00:39:07;;;;;;;30.53;13.47;;;7.10;36.50;;;;;;5087100;28;20455;-84
2022/03/13 00:41:34;;;;;;;17.27;10.90;;;7.10;36.40;;;;;;5070982;28;20461;-84
2022/03/13 00:44:01;;;;;;;23.77;11.23;;;7.10;36.40;;;;;;5087084;28;20955;-82
2022/03/13 00:46:29;;;;;;;11.83;9.10;;;7.10;36.20;;;;;;5087486;28;21269;-84
2022/03/13 00:48:58;;;;;;;22.93;11.40;;;7.20;36.10;;;;;;5089847;28;20475;-84
2022/03/13 00:51:25;;;;;;;26.40;14.77;;;7.20;36.30;;;;;;5090087;28;20471;-84
2022/03/13 00:53:52;;;;;;;27.77;14.30;;;7.10;36.50;;;;;;5054706;28;20442;-84
2022/03/13 00:56:19;;;;;;;23.37;13.27;;;7.10;36.50;;;;;;5087867;28;20447;-83
2022/03/13 00:58:45;;;;;;;25.00;12.67;;;7.10;36.50;;;;;;5086500;28;20447;-83
2022/03/13 01:01:13;;;;;;;26.73;12.93;;;7.10;36.80;;;;;;5088044;28;20443;-84
2022/03/13 01:03:52;;;;;;;30.23;12.60;;;7.10;36.30;;;;;;5072128;28;20456;-84
2022/03/13 01:06:20;;;;;;;23.30;11.33;;;7.10;36.30;;;;;;5090559;28;20450;-84
2022/03/13 01:08:51;;;;;;;22.53;10.57;;;7.10;35.80;;;;;;5088841;28;20974;-84
2022/03/13 01:11:21;;;;;;;14.57;8.57;;;7.10;35.40;;;;;;5089057;28;20443;-83
2022/03/13 01:13:49;;;;;;;14.30;8.60;;;7.10;35.40;;;;;;5080863;28;20442;-85
2022/03/13 01:16:17;;;;;;;19.57;10.37;;;7.10;35.50;;;;;;5064943;28;20881;-83
2022/03/13 01:18:48;;;;;;;21.13;10.33;;;7.00;35.60;;;;;;5092073;28;20458;-83
2022/03/13 01:21:17;;;;;;;22.40;10.80;;;7.00;35.40;;;;;;5091222;28;20479;-84
2022/03/13 01:24:18;;;;;;;18.47;9.30;;;7.00;35.70;;;;;;5071499;28;20486;-85
2022/03/13 01:26:49;;;;;;;24.97;11.70;;;7.00;36.10;;;;;;5090799;28;20479;-81
2022/03/13 01:29:17;;;;;;;23.70;12.80;;;6.90;36.30;;;;;;5087860;28;20506;-85
2022/03/13 01:31:46;;;;;;;22.83;10.43;;;6.90;37.10;;;;;;5091305;28;20557;-83
2022/03/13 01:34:26;;;;;;;15.93;10.23;;;6.90;36.50;;;;;;5091618;28;20458;-84
2022/03/13 01:36:55;;;;;;;18.13;10.70;;;6.80;36.40;;;;;;5073836;28;20604;-84
2022/03/13 01:39:21;;;;;;;22.20;10.60;;;6.80;36.40;;;;;;5072793;28;20954;-84
2022/03/13 01:41:49;;;;;;;18.57;10.83;;;6.80;36.60;;;;;;5064489;28;20932;-84
2022/03/13 01:44:19;;;;;;;18.23;8.90;;;6.80;36.80;;;;;;5079000;28;20523;-83
2022/03/13 01:46:46;;;;;;;28.03;11.50;;;6.80;36.90;;;;;;5089396;28;20618;-83
2022/03/13 01:49:14;;;;;;;20.20;10.00;;;6.70;36.90;;;;;;5091352;28;20569;-82
2022/03/13 01:51:41;;;;;;;17.97;10.97;;;6.70;37.10;;;;;;5090760;28;20471;-82
2022/03/13 01:54:12;;;;;;;17.13;10.80;;;6.60;37.30;;;;;;5081933;28;20944;-82
2022/03/13 01:56:41;;;;;;;19.73;9.70;;;6.50;37.00;;;;;;5091467;28;20946;-84
2022/03/13 01:59:10;;;;;;;19.30;10.10;;;6.50;37.50;;;;;;5073341;28;20439;-84
2022/03/13 02:01:39;;;;;;;17.27;9.60;;;6.50;37.40;;;;;;5092036;28;20475;-84
2022/03/13 02:04:06;;;;;;;15.57;9.10;;;6.60;37.30;;;;;;5088775;28;20449;-84
2022/03/13 02:06:36;;;;;;;14.67;8.87;;;6.60;36.90;;;;;;5099670;28;20962;-84
2022/03/13 02:09:06;;;;;;;16.87;10.30;;;6.60;36.70;;;;;;5090083;28;20459;-83
2022/03/13 02:11:40;;;;;;;23.40;9.40;;;6.60;36.80;;;;;;5087320;28;20493;-84
2022/03/13 02:14:10;;;;;;;18.47;9.60;;;6.50;36.80;;;;;;5088009;28;20533;-84
2022/03/13 02:16:39;;;;;;;19.73;10.23;;;6.50;37.00;;;;;;5062656;28;20451;-84
2022/03/13 02:19:07;;;;;;;17.30;9.23;;;6.50;37.00;;;;;;5088015;28;20444;-84
2022/03/13 02:21:45;;;;;;;18.10;10.17;;;6.50;36.90;;;;;;5090216;28;20597;-83
2022/03/13 02:24:16;;;;;;;19.10;10.03;;;6.50;36.90;;;;;;5060118;28;20841;-83
2022/03/13 02:26:44;;;;;;;14.83;7.60;;;6.50;36.70;;;;;;5099054;28;20443;-84
2022/03/13 02:29:14;;;;;;;18.53;8.10;;;6.40;36.80;;;;;;5091298;28;20927;-82
2022/03/13 02:31:43;;;;;;;14.00;8.37;;;6.40;36.40;;;;;;5082353;28;21290;-83
2022/03/13 02:34:15;;;;;;;16.63;8.47;;;6.40;36.30;;;;;;5098229;28;20494;-83
2022/03/13 02:36:58;;;;;;;12.47;7.07;;;6.40;36.20;;;;;;5080150;28;20448;-83
2022/03/13 02:39:28;;;;;;;14.60;7.00;;;6.40;35.60;;;;;;5088781;28;20454;-84
2022/03/13 02:41:55;;;;;;;12.07;7.37;;;6.40;35.30;;;;;;5063811;28;20470;-83
2022/03/13 02:44:22;;;;;;;12.87;7.90;;;6.30;35.20;;;;;;5071613;28;20444;-83
2022/03/13 02:46:55;;;;;;;9.30;6.70;;;6.30;35.30;;;;;;5089426;28;20451;-83
2022/03/13 02:49:24;;;;;;;13.13;7.13;;;6.20;35.10;;;;;;5084799;28;20952;-82
2022/03/13 02:51:55;;;;;;;9.63;6.50;;;6.20;34.50;;;;;;5090868;28;20471;-82
2022/03/13 02:54:22;;;;;;;15.10;7.10;;;6.10;34.90;;;;;;5087171;28;20837;-83
2022/03/13 02:56:51;;;;;;;12.83;6.73;;;6.10;35.00;;;;;;5074996;28;20931;-83
2022/03/13 02:59:19;;;;;;;9.90;6.40;;;6.20;34.80;;;;;;5087510;28;20538;-83
2022/03/13 03:01:45;;;;;;;12.00;7.20;;;6.20;34.50;;;;;;5088170;28;20476;-82
2022/03/13 03:04:13;;;;;;;9.60;6.53;;;6.20;34.60;;;;;;5088384;28;20448;-83
2022/03/13 03:06:51;;;;;;;12.47;7.47;;;6.20;34.90;;;;;;5089565;28;20543;-83
2022/03/13 03:09:19;;;;;;;11.63;8.30;;;6.10;35.00;;;;;;5078932;28;20442;-83
2022/03/13 03:11:46;;;;;;;17.47;8.50;;;6.10;35.20;;;;;;5089113;28;20495;-82
2022/03/13 03:14:16;;;;;;;15.53;8.47;;;6.10;35.40;;;;;;5101939;27;20466;-83
2022/03/13 03:16:43;;;;;;;14.97;8.33;;;6.10;35.60;;;;;;5106330;27;20451;-83
2022/03/13 03:19:10;;;;;;;20.00;8.27;;;6.00;35.70;;;;;;5090242;28;20499;-83
2022/03/13 03:21:38;;;;;;;15.80;9.03;;;6.00;36.60;;;;;;5088915;28;20965;-83
2022/03/13 03:24:12;;;;;;;19.00;10.10;;;6.00;36.70;;;;;;5069094;28;20486;-83
2022/03/13 03:26:39;;;;;;;21.20;10.03;;;5.80;37.60;;;;;;5086988;28;20456;-83
2022/03/13 03:29:06;;;;;;;15.93;8.17;;;5.70;38.60;;;;;;5087853;28;20782;-85
2022/03/13 03:31:39;;;;;;;22.37;9.33;;;5.70;38.50;;;;;;5085662;28;20479;-83
2022/03/13 03:34:09;;;;;;;18.93;10.30;;;5.70;38.40;;;;;;5090145;28;20460;-84
2022/03/13 03:36:40;;;;;;;15.83;8.40;;;5.70;38.70;;;;;;5086073;28;20962;-84
2022/03/13 03:39:08;;;;;;;13.33;7.60;;;5.80;38.70;;;;;;5090974;28;20442;-83
2022/03/13 03:41:35;;;;;;;12.50;8.77;;;5.80;38.40;;;;;;5087406;28;20466;-84
2022/03/13 03:44:02;;;;;;;14.10;7.77;;;5.80;37.70;;;;;;5088803;28;20450;-84
2022/03/13 03:46:29;;;;;;;13.97;7.63;;;5.40;36.80;;;;;;5087631;28;20460;-84
2022/03/13 03:48:57;;;;;;;16.47;7.40;;;5.00;36.90;;;;;;5087185;28;20451;-84
2022/03/13 03:51:24;;;;;;;17.00;7.40;;;4.70;37.60;;;;;;5072623;28;20474;-84
2022/03/13 03:53:51;;;;;;;27.67;9.90;;;4.50;38.00;;;;;;5086143;28;20463;-85
2022/03/13 03:56:18;;;;;;;16.03;8.80;;;4.50;38.50;;;;;;5087137;28;20440;-83
2022/03/13 03:58:45;;;;;;;14.60;8.50;;;4.70;38.60;;;;;;5078418;28;20451;-84
2022/03/13 04:01:13;;;;;;;14.10;8.00;;;4.90;38.70;;;;;;5088439;28;20454;-84
2022/03/13 04:03:40;;;;;;;11.63;6.50;;;5.10;38.50;;;;;;5087264;28;20523;-85
2022/03/13 04:06:08;;;;;;;12.80;7.40;;;5.00;37.60;;;;;;5078076;28;20454;-83
2022/03/13 04:08:37;;;;;;;7.10;5.43;;;4.70;37.20;;;;;;5088279;28;20552;-84
2022/03/13 04:11:06;;;;;;;9.03;7.30;;;4.60;37.90;;;;;;5087551;28;20994;-85
2022/03/13 04:13:38;;;;;;;12.90;5.73;;;4.40;37.90;;;;;;5086474;28;20439;-85
2022/03/13 04:16:07;;;;;;;11.37;5.77;;;4.10;37.40;;;;;;5087694;28;20930;-86
2022/03/13 04:18:35;;;;;;;10.53;6.40;;;3.60;37.50;;;;;;5084143;28;20471;-85
2022/03/13 04:21:04;;;;;;;10.40;6.80;;;3.30;37.80;;;;;;5088179;28;20434;-83
2022/03/13 04:23:33;;;;;;;7.83;6.20;;;3.40;38.10;;;;;;5085888;28;20951;-84
2022/03/13 04:26:00;;;;;;;12.37;6.27;;;3.90;38.40;;;;;;5087125;28;20447;-85
2022/03/13 04:28:27;;;;;;;10.77;6.23;;;4.40;38.20;;;;;;5088304;28;20450;-85
2022/03/13 04:30:57;;;;;;;12.00;6.83;;;4.70;37.60;;;;;;5084947;28;20487;-85
2022/03/13 04:33:25;;;;;;;14.73;7.53;;;4.90;37.10;;;;;;5089464;28;20833;-85
2022/03/13 04:35:57;;;;;;;10.70;6.77;;;5.10;37.20;;;;;;5088211;28;20447;-85
2022/03/13 04:38:26;;;;;;;22.33;9.20;;;5.20;37.20;;;;;;5087594;28;20568;-85
2022/03/13 04:40:55;;;;;;;20.77;8.27;;;5.30;37.20;;;;;;5084283;28;21168;-86
2022/03/13 04:43:23;;;;;;;17.13;8.57;;;5.30;37.20;;;;;;5080273;28;20474;-84
2022/03/13 04:45:51;;;;;;;11.97;7.43;;;5.30;37.00;;;;;;5085086;28;20697;-85
2022/03/13 04:48:19;;;;;;;12.70;8.03;;;5.20;37.00;;;;;;5087164;28;20758;-85
2022/03/13 04:50:47;;;;;;;19.40;8.60;;;5.20;37.60;;;;;;5066421;28;20464;-85
2022/03/13 04:53:15;;;;;;;11.37;7.77;;;5.20;38.20;;;;;;5085781;28;20492;-85
2022/03/13 04:55:42;;;;;;;24.60;9.33;;;5.10;38.30;;;;;;5070888;28;20509;-85
2022/03/13 04:58:14;;;;;;;12.23;7.20;;;5.00;38.40;;;;;;5076372;28;20456;-85
2022/03/13 05:00:42;;;;;;;11.43;7.60;;;5.00;39.10;;;;;;5051900;28;20474;-85
2022/03/13 05:03:10;;;;;;;13.87;7.53;;;5.10;38.90;;;;;;5056187;28;20471;-85
2022/03/13 05:05:39;;;;;;;16.97;7.40;;;5.00;38.70;;;;;;5078121;28;20446;-85
2022/03/13 05:08:11;;;;;;;15.90;8.50;;;5.00;38.80;;;;;;5084965;28;20456;-85
2022/03/13 05:10:39;;;;;;;13.63;7.30;;;5.00;38.60;;;;;;5064378;28;20464;-85
2022/03/13 05:13:07;;;;;;;10.77;8.03;;;5.00;38.40;;;;;;5083640;28;20470;-85
2022/03/13 05:15:37;;;;;;;10.43;7.80;;;4.90;37.90;;;;;;5073596;28;20462;-85
2022/03/13 05:18:04;;;;;;;12.70;6.93;;;4.90;38.30;;;;;;5059551;28;20492;-86
2022/03/13 05:20:32;;;;;;;12.23;7.70;;;4.90;38.40;;;;;;5071289;28;20821;-84
2022/03/13 05:22:59;;;;;;;14.43;6.90;;;4.90;38.60;;;;;;5075605;28;20549;-86
2022/03/13 05:25:31;;;;;;;13.03;7.73;;;5.00;38.40;;;;;;5054354;28;20598;-84
2022/03/13 05:27:58;;;;;;;11.73;7.57;;;5.00;38.20;;;;;;5060344;28;20482;-85
2022/03/13 05:30:25;;;;;;;12.50;6.30;;;5.00;38.20;;;;;;5070854;28;20565;-86
2022/03/13 05:32:54;;;;;;;11.60;7.90;;;5.10;38.50;;;;;;5063510;28;20471;-85
2022/03/13 05:35:22;;;;;;;12.60;6.97;;;5.10;38.50;;;;;;5081399;28;20443;-84
2022/03/13 05:37:49;;;;;;;14.47;7.40;;;5.10;38.20;;;;;;5090009;28;20451;-83
2022/03/13 05:40:18;;;;;;;13.20;7.13;;;5.10;38.20;;;;;;5091723;28;20781;-85
2022/03/13 05:42:47;;;;;;;10.43;7.23;;;5.00;38.20;;;;;;5074838;28;20474;-85
2022/03/13 05:45:16;;;;;;;16.43;9.20;;;5.00;38.30;;;;;;5065931;28;20945;-86
2022/03/13 05:47:47;;;;;;;56.53;28.00;;;5.00;38.40;;;;;;5062380;28;21120;-85
2022/03/13 05:50:17;;;;;;;55.60;24.13;;;5.00;38.50;;;;;;5065071;28;20566;-85
2022/03/13 05:52:46;;;;;;;28.10;14.00;;;5.00;38.60;;;;;;5093144;28;20471;-85
2022/03/13 05:55:13;;;;;;;18.17;11.63;;;5.00;38.70;;;;;;5073580;28;20431;-85
2022/03/13 05:57:41;;;;;;;20.73;12.57;;;5.00;38.80;;;;;;5082962;28;20520;-85
2022/03/13 06:00:10;;;;;;;25.97;11.13;;;5.10;39.10;;;;;;5074372;28;20439;-85
2022/03/13 06:02:46;;;;;;;16.47;8.50;;;5.00;39.00;;;;;;5054137;28;20475;-85
2022/03/13 06:05:17;;;;;;;15.77;8.77;;;5.00;39.00;;;;;;5066164;28;20475;-86
2022/03/13 06:07:45;;;;;;;15.50;8.20;;;5.00;39.00;;;;;;5065439;28;20455;-85
2022/03/13 06:10:14;;;;;;;14.20;7.57;;;4.90;39.10;;;;;;5071450;28;20449;-86
2022/03/13 06:12:41;;;;;;;16.13;9.27;;;4.90;39.20;;;;;;5065377;28;21001;-84
2022/03/13 06:15:12;;;;;;;16.47;8.90;;;5.00;39.20;;;;;;5071750;28;20446;-85
2022/03/13 06:17:44;;;;;;;13.30;7.17;;;4.90;39.30;;;;;;5066683;28;20469;-85
2022/03/13 06:20:12;;;;;;;18.13;7.53;;;4.80;39.00;;;;;;5074689;28;20546;-84
2022/03/13 06:22:42;;;;;;;14.00;9.60;;;4.20;37.30;;;;;;5076660;28;20477;-84
2022/03/13 06:25:11;;;;;;;19.43;10.23;;;3.90;39.00;;;;;;5077249;28;20447;-85
2022/03/13 06:27:39;;;;;;;16.97;10.83;;;4.20;39.30;;;;;;5079130;28;20513;-84
2022/03/13 06:30:12;;;;;;;21.70;11.40;;;4.40;39.40;;;;;;5091612;28;20486;-85
2022/03/13 06:32:41;;;;;;;17.03;9.93;;;4.60;39.10;;;;;;5074507;28;21012;-85
2022/03/13 06:35:09;;;;;;;18.60;10.27;;;4.70;38.90;;;;;;5077008;28;20439;-84
2022/03/13 06:37:37;;;;;;;18.80;9.97;;;4.80;39.00;;;;;;5090782;28;20961;-84
2022/03/13 06:40:10;;;;;;;16.43;9.27;;;4.90;39.10;;;;;;5080377;28;22251;-84
2022/03/13 06:42:38;;;;;;;13.83;8.30;;;4.90;39.20;;;;;;5068183;28;20454;-85
2022/03/13 06:45:10;;;;;;;15.97;8.47;;;5.00;39.30;;;;;;5069677;28;20892;-85
2022/03/13 06:47:38;;;;;;;13.73;8.00;;;5.00;39.50;;;;;;5076382;28;20450;-86
2022/03/13 06:50:06;;;;;;;13.10;8.17;;;5.10;39.80;;;;;;5072266;28;20447;-82
2022/03/13 06:52:33;;;;;;;24.50;10.50;;;5.10;39.90;;;;;;5077836;28;20506;-84
2022/03/13 06:55:00;;;;;;;17.80;11.17;;;5.10;39.90;;;;;;5062035;28;21135;-85
2022/03/13 06:57:30;;;;;;;24.27;10.47;;;5.20;39.80;;;;;;5077186;28;20483;-84
2022/03/13 06:59:58;;;;;;;18.87;9.90;;;5.20;39.80;;;;;;5060374;28;21249;-85
2022/03/13 07:02:25;;;;;;;21.63;11.50;;;5.20;39.90;;;;;;5071519;28;21753;-84
2022/03/13 07:04:52;;;;;;;32.87;13.97;;;5.20;40.70;;;;;;5076708;28;20461;-84
2022/03/13 07:07:19;;;;;;;34.20;15.40;;;5.20;40.50;;;;;;5061333;28;20533;-84
2022/03/13 07:09:46;;;;;;;26.70;12.83;;;5.20;40.40;;;;;;5085024;28;20485;-85
2022/03/13 07:12:15;;;;;;;20.30;9.63;;;5.20;40.50;;;;;;5068410;28;20956;-84
2022/03/13 07:14:46;;;;;;;20.70;10.83;;;5.20;40.20;;;;;;5085481;28;20454;-84
2022/03/13 07:17:13;;;;;;;22.40;12.53;;;5.30;40.10;;;;;;5088201;28;20585;-84
2022/03/13 07:19:43;;;;;;;22.03;12.60;;;5.30;39.90;;;;;;5086172;28;20443;-84
2022/03/13 07:22:10;;;;;;;19.70;11.80;;;5.30;39.80;;;;;;5083029;28;20471;-84
2022/03/13 07:24:37;;;;;;;25.90;12.83;;;5.40;40.00;;;;;;5092773;28;20977;-83
2022/03/13 07:27:05;;;;;;;22.00;12.30;;;5.40;39.80;;;;;;5058349;28;20458;-84
2022/03/13 07:29:33;;;;;;;19.30;11.63;;;5.40;39.70;;;;;;5070506;28;20457;-84
2022/03/13 07:32:01;;;;;;;31.60;15.50;;;5.40;39.70;;;;;;5054510;28;20474;-84
2022/03/13 07:34:29;;;;;;;22.23;14.50;;;5.50;39.90;;;;;;5076241;28;20458;-84
2022/03/13 07:36:56;;;;;;;19.10;11.77;;;5.50;40.10;;;;;;5057759;28;20486;-83
2022/03/13 07:39:24;;;;;;;26.60;12.57;;;5.50;39.20;;;;;;5084814;28;20475;-84
2022/03/13 07:41:54;;;;;;;37.00;19.43;;;5.50;39.20;;;;;;5086381;28;20482;-84
2022/03/13 07:44:21;;;;;;;29.00;13.13;;;5.50;37.80;;;;;;5085671;28;20924;-83
2022/03/13 07:46:48;;;;;;;24.57;12.13;;;5.50;37.50;;;;;;5086530;28;20530;-85
2022/03/13 07:49:17;;;;;;;16.67;10.30;;;5.60;37.30;;;;;;5088309;28;20462;-85
2022/03/13 07:51:44;;;;;;;21.77;11.47;;;5.60;37.60;;;;;;5087749;28;20491;-86
2022/03/13 07:54:11;;;;;;;23.47;9.80;;;5.70;36.50;;;;;;5085006;28;20571;-83
2022/03/13 07:56:38;;;;;;;18.60;9.53;;;5.70;36.40;;;;;;5087593;28;20494;-82
2022/03/13 07:59:05;;;;;;;15.07;9.60;;;5.80;36.50;;;;;;5073539;28;20455;-84
2022/03/13 08:01:32;;;;;;;13.10;9.57;;;5.80;37.80;;;;;;5085291;28;20475;-84
2022/03/13 08:04:01;;;;;;;14.47;8.97;;;5.80;36.70;;;;;;5085170;28;20964;-84
2022/03/13 08:06:31;;;;;;;21.57;9.40;;;5.80;36.30;;;;;;5085343;28;20951;-83
2022/03/13 08:08:58;;;;;;;17.70;8.33;;;5.70;36.70;;;;;;5084273;28;20447;-83
2022/03/13 08:11:26;;;;;;;14.90;9.63;;;5.70;36.60;;;;;;5101437;27;20558;-82
2022/03/13 08:13:53;;;;;;;16.10;8.63;;;5.70;36.80;;;;;;5072249;28;20439;-82
2022/03/13 08:16:20;;;;;;;14.73;8.97;;;5.80;36.70;;;;;;5084601;28;20456;-84
2022/03/13 08:18:47;;;;;;;11.93;7.20;;;5.80;36.60;;;;;;5101416;27;20467;-83
2022/03/13 08:21:15;;;;;;;11.60;6.30;;;5.90;36.00;;;;;;5086436;28;20462;-83
2022/03/13 08:23:43;;;;;;;13.13;8.60;;;5.80;34.30;;;;;;5084318;28;20439;-82
2022/03/13 08:26:11;;;;;;;15.73;6.60;;;5.90;32.80;;;;;;5083406;28;20455;-83
2022/03/13 08:28:38;;;;;;;14.27;6.53;;;5.90;32.10;;;;;;5083121;28;20568;-82
2022/03/13 08:31:05;;;;;;;11.50;6.60;;;6.10;31.60;;;;;;5066830;28;20450;-83
2022/03/13 08:33:32;;;;;;;11.77;5.60;;;6.30;31.30;;;;;;5087368;28;20964;-82
2022/03/13 08:35:59;;;;;;;7.37;4.23;;;6.40;31.20;;;;;;5084519;28;20459;-83
2022/03/13 08:38:26;;;;;;;10.63;6.27;;;6.50;30.50;;;;;;5074663;28;20454;-83
2022/03/13 08:40:56;;;;;;;7.87;5.80;;;6.60;30.30;;;;;;5083718;28;20474;-83
2022/03/13 08:43:23;;;;;;;9.77;5.60;;;6.60;30.10;;;;;;5084141;28;20472;-83
2022/03/13 08:45:51;;;;;;;13.90;6.00;;;6.70;29.80;;;;;;5071307;28;20478;-83
2022/03/13 08:48:17;;;;;;;9.90;6.70;;;6.70;29.40;;;;;;5085019;28;20789;-84
2022/03/13 08:50:44;;;;;;;9.03;5.73;;;6.90;29.70;;;;;;5084494;28;20456;-83
2022/03/13 08:53:11;;;;;;;7.73;5.57;;;7.10;29.40;;;;;;5083253;28;20479;-85
2022/03/13 08:55:38;;;;;;;13.83;5.93;;;7.10;28.70;;;;;;5085737;28;20993;-85
2022/03/13 08:58:07;;;;;;;10.90;6.83;;;7.00;28.80;;;;;;5085171;28;20453;-85
2022/03/13 09:00:35;;;;;;;5.77;4.90;;;7.10;29.00;;;;;;5079249;28;20538;-86
2022/03/13 09:03:02;;;;;;;21.93;7.40;;;7.20;28.90;;;;;;5078004;28;20479;-85
2022/03/13 09:05:29;;;;;;;8.20;5.33;;;7.50;30.00;;;;;;5083948;28;20504;-85
2022/03/13 09:07:57;;;;;;;13.60;6.13;;;7.70;28.80;;;;;;5094374;28;20958;-84
2022/03/13 09:10:23;;;;;;;10.07;6.60;;;7.70;28.40;;;;;;5098832;28;20558;-85
2022/03/13 09:12:50;;;;;;;11.30;5.80;;;7.80;28.10;;;;;;5087679;28;20924;-84
2022/03/13 09:15:19;;;;;;;7.93;5.70;;;8.00;28.00;;;;;;5084956;28;20666;-84
2022/03/13 09:17:53;;;;;;;8.77;5.83;;;8.20;27.60;;;;;;5086592;28;20511;-85
2022/03/13 09:20:20;;;;;;;11.13;6.50;;;8.40;27.50;;;;;;5105490;27;20451;-85
2022/03/13 09:22:48;;;;;;;11.50;5.20;;;8.70;27.30;;;;;;5087446;28;20597;-83
2022/03/13 09:25:15;;;;;;;8.07;6.37;;;8.70;26.80;;;;;;5073296;28;20451;-84
2022/03/13 09:27:42;;;;;;;9.97;6.33;;;8.80;26.90;;;;;;5088402;28;20448;-85
2022/03/13 09:30:10;;;;;;;7.50;5.27;;;9.00;26.90;;;;;;5088700;28;20462;-87
2022/03/13 09:32:39;;;;;;;8.77;6.40;;;9.10;26.70;;;;;;5090006;28;20478;-85
2022/03/13 09:35:10;;;;;;;11.40;6.30;;;9.20;25.90;;;;;;5091609;28;20471;-86
2022/03/13 09:37:37;;;;;;;13.83;6.00;;;9.20;26.10;;;;;;5088083;28;20458;-86
2022/03/13 09:40:04;;;;;;;8.20;5.60;;;9.50;26.40;;;;;;5097736;28;20444;-86
2022/03/13 09:42:31;;;;;;;11.70;6.57;;;9.50;25.50;;;;;;5072682;28;20482;-86
2022/03/13 09:45:00;;;;;;;8.10;5.33;;;9.80;25.80;;;;;;5074958;28;20442;-85
2022/03/13 09:47:28;;;;;;;8.30;5.83;;;10.00;24.70;;;;;;5080042;28;20841;-86
2022/03/13 09:49:57;;;;;;;8.57;6.17;;;10.10;24.60;;;;;;5088291;28;20447;-85
2022/03/13 09:52:24;;;;;;;10.83;6.00;;;10.20;24.60;;;;;;5092356;28;20474;-86
2022/03/13 09:54:51;;;;;;;8.77;5.60;;;10.40;24.60;;;;;;5092312;28;20469;-85
2022/03/13 09:57:19;;;;;;;11.20;6.57;;;10.40;24.00;;;;;;5074004;28;20933;-87
2022/03/13 09:59:47;;;;;;;7.23;5.63;;;10.20;24.20;;;;;;5064218;28;20460;-87
2022/03/13 10:02:14;;;;;;;13.40;6.63;;;10.40;24.60;;;;;;5064953;28;21009;-86
2022/03/13 10:04:41;;;;;;;7.63;5.87;;;10.70;23.90;;;;;;5088642;28;20465;-85
2022/03/13 10:07:10;;;;;;;10.00;6.90;;;10.90;24.50;;;;;;5091407;28;20448;-86
2022/03/13 10:09:38;;;;;;;12.77;6.70;;;11.20;23.50;;;;;;5093795;28;20462;-87
2022/03/13 10:12:09;;;;;;;9.30;6.23;;;11.40;23.30;;;;;;5093112;28;20466;-86
2022/03/13 10:14:38;;;;;;;9.37;6.10;;;11.20;23.00;;;;;;5093097;28;20448;-86
2022/03/13 10:17:14;;;;;;;13.30;6.13;;;11.40;23.50;;;;;;5088565;28;20456;-87
2022/03/13 10:19:41;;;;;;;7.73;5.57;;;11.90;23.20;;;;;;5083032;28;20439;-87
2022/03/13 10:22:10;;;;;;;11.50;5.90;;;12.10;22.70;;;;;;5091443;28;20478;-88
2022/03/13 10:24:44;;;;;;;10.13;6.87;;;12.20;22.10;;;;;;5065345;28;20958;-87
2022/03/13 10:27:15;;;;;;;8.03;6.13;;;12.30;22.30;;;;;;5077213;28;20839;-86
2022/03/13 10:29:45;;;;;;;10.70;6.20;;;12.20;22.50;;;;;;5088817;28;20455;-87
2022/03/13 10:32:12;;;;;;;9.70;6.20;;;12.50;22.90;;;;;;5090436;28;20617;-87
2022/03/13 10:34:52;;;;;;;13.13;7.57;;;12.60;22.40;;;;;;5080115;28;20713;-87
2022/03/13 10:37:33;;;;;;;7.07;6.17;;;13.00;22.10;;;;;;5075010;28;20958;-88
2022/03/13 10:40:08;;;;;;;9.13;6.63;;;13.10;21.70;;;;;;5072967;28;21025;-89
2022/03/13 10:42:43;;;;;;;10.57;6.90;;;12.90;21.80;;;;;;5090999;28;20463;-88
2022/03/13 10:45:12;;;;;;;8.90;6.10;;;12.80;22.30;;;;;;5099128;28;20450;-87
2022/03/13 10:47:39;;;;;;;8.40;6.70;;;12.80;21.90;;;;;;5069762;28;20454;-88
2022/03/13 10:50:07;;;;;;;11.07;7.30;;;13.00;22.40;;;;;;5072665;28;20494;-86
2022/03/13 10:52:41;;;;;;;9.83;6.90;;;13.50;22.00;;;;;;5088277;28;20483;-87
2022/03/13 10:55:22;;;;;;;9.93;7.17;;;13.90;21.80;;;;;;5089871;28;20478;-86
2022/03/13 10:57:54;;;;;;;9.20;6.50;;;14.00;21.40;;;;;;5086594;28;20447;-87
2022/03/13 11:00:23;;;;;;;13.43;7.33;;;14.00;21.60;;;;;;5088592;28;20513;-87
2022/03/13 11:02:51;;;;;;;8.67;6.30;;;14.10;21.00;;;;;;5095620;28;20993;-88
2022/03/13 11:05:18;;;;;;;8.37;6.30;;;14.30;20.90;;;;;;5090230;28;20450;-87
2022/03/13 11:07:46;;;;;;;9.43;6.50;;;14.30;20.30;;;;;;5075957;28;20814;-85
2022/03/13 11:10:13;;;;;;;12.13;7.90;;;14.50;20.40;;;;;;5059455;28;20459;-87
2022/03/13 11:12:41;;;;;;;12.90;7.17;;;14.60;21.60;;;;;;5091314;28;20474;-86
2022/03/13 11:15:11;;;;;;;10.93;6.17;;;14.50;20.40;;;;;;5061496;28;20447;-87
2022/03/13 11:17:40;;;;;;;12.07;8.10;;;14.10;20.50;;;;;;5089460;28;20439;-86
2022/03/13 11:20:09;;;;;;;11.77;7.17;;;14.00;21.30;;;;;;5089159;28;20669;-87
2022/03/13 11:22:36;;;;;;;13.50;7.30;;;14.40;20.90;;;;;;5084604;28;20463;-86
2022/03/13 11:25:07;;;;;;;11.50;8.90;;;14.60;20.20;;;;;;5091790;28;20444;-87
2022/03/13 11:27:37;;;;;;;13.70;9.20;;;14.80;21.40;;;;;;5089943;28;20966;-87
2022/03/13 11:30:06;;;;;;;12.07;6.97;;;15.40;20.80;;;;;;5090242;28;20450;-87
2022/03/13 11:32:40;;;;;;;10.07;7.20;;;15.20;20.00;;;;;;5072190;28;20478;-87
2022/03/13 11:35:40;;;;;;;13.43;7.53;;;15.00;20.10;;;;;;5086198;28;20455;-87
2022/03/13 11:38:22;;;;;;;12.30;7.03;;;14.90;20.00;;;;;;5028404;28;20448;-87
2022/03/13 11:40:50;;;;;;;9.40;6.70;;;15.10;20.70;;;;;;5045842;28;21038;-86
2022/03/13 11:43:19;;;;;;;13.17;7.70;;;15.20;20.60;;;;;;5047222;28;20603;-86
2022/03/13 11:45:52;;;;;;;11.80;7.00;;;15.20;20.30;;;;;;5061534;28;20807;-87
2022/03/13 11:48:41;;;;;;;13.40;7.47;;;15.30;20.40;;;;;;5087881;28;20672;-88
2022/03/13 11:51:09;;;;;;;11.50;7.40;;;15.50;20.00;;;;;;5088818;28;20463;-87
2022/03/13 11:53:48;;;;;;;11.50;7.77;;;15.70;20.00;;;;;;5090987;28;20556;-88
2022/03/13 11:56:28;;;;;;;15.37;9.97;;;15.90;20.20;;;;;;5093022;28;20439;-86
2022/03/13 11:58:57;;;;;;;12.57;7.10;;;16.50;19.70;;;;;;5088123;28;20440;-87
2022/03/13 12:01:37;;;;;;;10.17;7.07;;;16.50;19.60;;;;;;5089615;28;20455;-87
2022/03/13 12:04:23;;;;;;;16.60;11.27;;;16.30;19.30;;;;;;5090032;28;20546;-87
2022/03/13 12:06:52;;;;;;;17.67;10.60;;;16.30;19.60;;;;;;5082442;28;20454;-87
2022/03/13 12:09:21;;;;;;;15.40;8.27;;;16.40;20.70;;;;;;5089931;28;20455;-86
2022/03/13 12:12:00;;;;;;;15.40;8.90;;;16.70;19.90;;;;;;5091784;28;20489;-87
2022/03/13 12:14:53;;;;;;;13.60;8.40;;;16.90;19.80;;;;;;5092095;28;21155;-87
2022/03/13 12:17:22;;;;;;;20.93;10.30;;;16.90;19.50;;;;;;5073755;28;20443;-88
2022/03/13 12:19:49;;;;;;;12.50;7.40;;;17.10;19.20;;;;;;5096411;28;20442;-86
2022/03/13 12:22:16;;;;;;;10.97;7.07;;;17.00;19.10;;;;;;5087942;28;20489;-86
2022/03/13 12:24:49;;;;;;;9.07;7.73;;;17.00;19.30;;;;;;5090001;28;20443;-85
2022/03/13 12:27:19;;;;;;;13.43;8.40;;;17.30;19.70;;;;;;5089379;28;20885;-85
2022/03/13 12:29:55;;;;;;;9.80;7.73;;;17.20;19.00;;;;;;5074330;28;20446;-86
2022/03/13 12:32:27;;;;;;;9.70;7.27;;;17.10;19.30;;;;;;5089701;28;20554;-86
2022/03/13 12:34:54;;;;;;;12.13;8.40;;;17.50;19.80;;;;;;5074870;28;20447;-86
2022/03/13 12:37:21;;;;;;;11.97;8.20;;;17.80;19.20;;;;;;5096134;28;20467;-86
2022/03/13 12:39:50;;;;;;;13.67;8.63;;;17.70;18.80;;;;;;5090418;28;20938;-86
2022/03/13 12:42:23;;;;;;;17.70;8.60;;;17.70;19.00;;;;;;5089465;28;20511;-87
2022/03/13 12:45:04;;;;;;;12.30;8.93;;;17.90;19.10;;;;;;5090532;28;20446;-86
2022/03/13 12:47:36;;;;;;;14.20;7.63;;;17.80;19.30;;;;;;5078303;28;20519;-86
2022/03/13 12:50:05;;;;;;;12.27;8.50;;;17.90;19.40;;;;;;5098117;28;20463;-86
2022/03/13 12:52:34;;;;;;;11.87;8.20;;;18.30;19.10;;;;;;5078850;28;20572;-87
2022/03/13 12:55:06;;;;;;;12.90;8.00;;;18.50;19.10;;;;;;5089400;28;20451;-87